createdAt,value
2018-08-31T00:00:53.607Z,99.99
2018-08-31T00:01:53.625Z,99.99
2018-08-31T00:02:53.653Z,99.99
2018-08-31T00:03:53.668Z,99.99
2018-08-31T00:04:53.681Z,99.99
2018-08-31T00:05:53.696Z,99.99
2018-08-31T00:06:53.749Z,99.99
2018-08-31T00:07:53.740Z,99.99
2018-08-31T00:08:53.754Z,99.99
2018-08-31T00:09:53.772Z,99.99
2018-08-31T00:10:53.789Z,99.99
2018-08-31T00:11:53.808Z,99.99
2018-08-31T00:12:53.824Z,99.99
2018-08-31T00:13:53.840Z,99.99
2018-08-31T00:14:53.863Z,99.99
2018-08-31T00:15:53.878Z,99.99
2018-08-31T00:16:53.896Z,99.99
2018-08-31T00:17:53.915Z,99.99
2018-08-31T00:18:53.940Z,99.99
2018-08-31T00:19:53.948Z,99.99
2018-08-31T00:20:53.967Z,99.99
2018-08-31T00:21:53.987Z,99.99
2018-08-31T00:22:54.005Z,99.99
2018-08-31T00:23:54.022Z,99.99
2018-08-31T00:24:54.041Z,99.99
2018-08-31T00:25:54.057Z,99.99
2018-08-31T00:26:54.075Z,99.99
2018-08-31T00:27:54.093Z,99.99
2018-08-31T00:28:54.109Z,99.99
2018-08-31T00:29:54.144Z,99.99
2018-08-31T00:30:54.154Z,99.99
2018-08-31T00:31:54.168Z,99.99
2018-08-31T00:32:54.184Z,99.99
2018-08-31T00:33:54.202Z,99.99
2018-08-31T00:34:54.273Z,99.99
2018-08-31T00:35:54.241Z,99.99
2018-08-31T00:36:54.255Z,99.99
2018-08-31T00:37:54.272Z,99.99
2018-08-31T00:38:54.294Z,99.99
2018-08-31T00:39:54.309Z,99.99
2018-08-31T00:40:54.326Z,99.99
2018-08-31T00:41:54.346Z,99.99
2018-08-31T00:42:54.364Z,99.99
2018-08-31T00:43:54.379Z,99.99
2018-08-31T00:44:54.398Z,99.99
2018-08-31T00:45:54.415Z,99.99
2018-08-31T00:46:54.438Z,99.99
2018-08-31T00:47:54.451Z,99.99
2018-08-31T00:48:54.470Z,99.99
2018-08-31T00:49:54.487Z,99.99
2018-08-31T00:50:54.504Z,99.99
2018-08-31T00:51:54.524Z,99.99
2018-08-31T00:52:54.548Z,99.99
2018-08-31T00:53:54.559Z,99.99
2018-08-31T00:54:54.579Z,99.99
2018-08-31T00:55:54.592Z,99.99
2018-08-31T00:56:54.614Z,99.99
2018-08-31T00:57:54.707Z,99.99
2018-08-31T00:58:54.656Z,99.99
2018-08-31T00:59:54.675Z,99.99
2018-08-31T01:00:54.683Z,99.99
2018-08-31T01:01:54.706Z,99.99
2018-08-31T01:02:54.718Z,99.99
2018-08-31T01:03:54.739Z,99.99
2018-08-31T01:04:54.753Z,99.99
2018-08-31T01:05:54.771Z,99.99
2018-08-31T01:06:54.800Z,99.99
2018-08-31T01:07:54.809Z,99.99
2018-08-31T01:08:54.826Z,99.99
2018-08-31T01:09:54.846Z,99.99
2018-08-31T01:10:54.863Z,99.99
2018-08-31T01:11:54.882Z,99.99
2018-08-31T01:12:54.901Z,99.99
2018-08-31T01:13:54.916Z,99.99
2018-08-31T01:14:54.932Z,99.99
2018-08-31T01:15:54.950Z,99.99
2018-08-31T01:16:54.967Z,99.99
2018-08-31T01:17:54.991Z,99.99
2018-08-31T01:18:55.004Z,99.99
2018-08-31T01:19:55.027Z,99.99
2018-08-31T01:20:55.045Z,99.99
2018-08-31T01:21:55.061Z,99.99
2018-08-31T01:22:55.074Z,99.99
2018-08-31T01:23:55.094Z,99.99
2018-08-31T01:24:55.110Z,99.99
2018-08-31T01:25:55.133Z,99.99
2018-08-31T01:26:55.148Z,99.99
2018-08-31T01:27:55.163Z,99.99
2018-08-31T01:28:55.181Z,99.99
2018-08-31T01:29:55.200Z,99.99
2018-08-31T01:30:55.217Z,99.99
2018-08-31T01:31:55.234Z,99.99
2018-08-31T01:32:55.253Z,99.99
2018-08-31T01:33:55.275Z,99.99
2018-08-31T01:34:55.286Z,99.99
2018-08-31T01:35:55.309Z,99.99
2018-08-31T01:36:55.322Z,99.99
2018-08-31T01:37:55.343Z,99.99
2018-08-31T01:38:55.361Z,99.99
2018-08-31T01:39:55.376Z,99.99
2018-08-31T01:40:55.395Z,99.99
2018-08-31T01:41:55.412Z,99.99
2018-08-31T01:42:55.446Z,99.99
2018-08-31T01:43:55.451Z,99.99
2018-08-31T01:44:55.464Z,99.99
2018-08-31T01:45:55.490Z,99.99
2018-08-31T01:46:55.502Z,99.99
2018-08-31T01:47:55.520Z,99.99
2018-08-31T01:48:55.537Z,99.99
2018-08-31T01:49:55.555Z,99.99
2018-08-31T01:50:55.571Z,99.99
2018-08-31T01:51:55.590Z,99.99
2018-08-31T01:52:55.606Z,99.99
2018-08-31T01:53:55.624Z,99.99
2018-08-31T01:54:55.641Z,99.99
2018-08-31T01:55:55.658Z,99.99
2018-08-31T01:56:55.679Z,99.99
2018-08-31T01:57:55.694Z,99.99
2018-08-31T01:58:55.716Z,99.99
2018-08-31T01:59:55.738Z,99.99
2018-08-31T02:00:55.748Z,99.99
2018-08-31T02:01:55.768Z,99.99
2018-08-31T02:02:55.785Z,99.99
2018-08-31T02:03:55.803Z,99.99
2018-08-31T02:04:55.818Z,99.99
2018-08-31T02:05:55.839Z,99.99
2018-08-31T02:06:55.854Z,99.99
2018-08-31T02:07:55.874Z,99.99
2018-08-31T02:08:55.892Z,99.99
2018-08-31T02:09:55.911Z,99.99
2018-08-31T02:10:55.927Z,99.99
2018-08-31T02:11:55.945Z,99.99
2018-08-31T02:12:55.964Z,99.99
2018-08-31T02:13:55.980Z,99.99
2018-08-31T02:14:56.000Z,99.99
2018-08-31T02:15:56.018Z,99.99
2018-08-31T02:16:56.033Z,99.99
2018-08-31T02:17:56.055Z,99.99
2018-08-31T02:18:56.072Z,99.99
2018-08-31T02:19:56.092Z,99.99
2018-08-31T02:20:56.107Z,99.99
2018-08-31T02:21:56.125Z,99.99
2018-08-31T02:22:56.152Z,99.99
2018-08-31T02:23:56.165Z,99.99
2018-08-31T02:24:56.178Z,99.99
2018-08-31T02:25:56.197Z,99.99
2018-08-31T02:26:56.221Z,99.99
2018-08-31T02:27:56.235Z,99.99
2018-08-31T02:28:56.251Z,99.99
2018-08-31T02:29:56.269Z,99.99
2018-08-31T02:30:56.288Z,99.99
2018-08-31T02:31:56.459Z,99.99
2018-08-31T02:32:56.323Z,99.99
2018-08-31T02:33:56.343Z,99.99
2018-08-31T02:34:56.359Z,99.99
2018-08-31T02:35:56.379Z,99.99
2018-08-31T02:36:56.395Z,99.99
2018-08-31T02:37:56.441Z,99.99
2018-08-31T02:38:56.434Z,99.99
2018-08-31T02:39:56.451Z,99.99
2018-08-31T02:40:56.471Z,99.99
2018-08-31T02:41:56.506Z,99.99
2018-08-31T02:42:56.513Z,99.99
2018-08-31T02:43:56.524Z,99.99
2018-08-31T02:44:56.540Z,99.99
2018-08-31T02:45:56.558Z,99.99
2018-08-31T02:46:56.581Z,99.99
2018-08-31T02:47:56.596Z,99.99
2018-08-31T02:48:56.613Z,99.99
2018-08-31T02:49:56.634Z,99.99
2018-08-31T02:50:56.656Z,99.99
2018-08-31T02:51:56.671Z,99.99
2018-08-31T02:52:56.686Z,99.99
2018-08-31T02:53:56.702Z,99.99
2018-08-31T02:54:56.721Z,99.99
2018-08-31T02:55:56.745Z,99.99
2018-08-31T02:56:56.763Z,99.99
2018-08-31T02:57:56.778Z,99.99
2018-08-31T02:58:56.793Z,99.99
2018-08-31T02:59:56.814Z,99.99
2018-08-31T03:00:56.830Z,99.99
2018-08-31T03:01:56.848Z,99.99
2018-08-31T03:02:56.867Z,99.99
2018-08-31T03:03:56.888Z,99.99
2018-08-31T03:04:56.902Z,99.99
2018-08-31T03:05:56.923Z,99.99
2018-08-31T03:06:56.944Z,99.99
2018-08-31T03:07:56.959Z,99.99
2018-08-31T03:08:56.978Z,99.99
2018-08-31T03:09:56.992Z,99.99
2018-08-31T03:10:57.013Z,99.99
2018-08-31T03:11:57.030Z,99.99
2018-08-31T03:12:57.051Z,99.99
2018-08-31T03:13:57.070Z,99.99
2018-08-31T03:14:57.086Z,99.99
2018-08-31T03:15:57.101Z,99.99
2018-08-31T03:16:57.124Z,99.99
2018-08-31T03:17:57.144Z,99.99
2018-08-31T03:18:57.159Z,99.99
2018-08-31T03:19:57.174Z,99.99
2018-08-31T03:20:57.196Z,99.99
2018-08-31T03:21:57.215Z,99.99
2018-08-31T03:22:57.232Z,99.99
2018-08-31T03:23:57.255Z,99.99
2018-08-31T03:24:57.267Z,99.99
2018-08-31T03:25:57.282Z,99.99
2018-08-31T03:26:57.299Z,99.99
2018-08-31T03:27:57.321Z,99.99
2018-08-31T03:28:57.338Z,99.99
2018-08-31T03:29:57.355Z,99.99
2018-08-31T03:30:57.380Z,99.99
2018-08-31T03:31:57.394Z,99.99
2018-08-31T03:32:57.409Z,99.99
2018-08-31T03:33:57.431Z,99.99
2018-08-31T03:34:57.448Z,99.99
2018-08-31T03:35:57.465Z,99.99
2018-08-31T03:36:57.554Z,99.99
2018-08-31T03:37:57.502Z,99.99
2018-08-31T03:38:57.516Z,99.99
2018-08-31T03:39:57.537Z,99.99
2018-08-31T03:40:57.552Z,99.99
2018-08-31T03:41:57.573Z,99.99
2018-08-31T03:42:57.592Z,99.99
2018-08-31T03:43:57.609Z,99.99
2018-08-31T03:44:57.623Z,99.99
2018-08-31T03:45:57.649Z,99.99
2018-08-31T03:46:57.663Z,99.99
2018-08-31T03:47:57.679Z,99.99
2018-08-31T03:48:57.696Z,99.99
2018-08-31T03:49:57.715Z,99.99
2018-08-31T03:50:57.734Z,99.99
2018-08-31T03:51:57.755Z,99.99
2018-08-31T03:52:57.770Z,99.99
2018-08-31T03:53:57.788Z,99.99
2018-08-31T03:54:57.806Z,99.99
2018-08-31T03:55:57.826Z,99.99
2018-08-31T03:56:57.842Z,99.99
2018-08-31T03:57:57.860Z,99.99
2018-08-31T03:58:57.877Z,99.99
2018-08-31T03:59:57.897Z,99.99
2018-08-31T04:00:57.913Z,99.99
2018-08-31T04:01:57.933Z,99.99
2018-08-31T04:02:57.951Z,99.99
2018-08-31T04:03:57.985Z,99.99
2018-08-31T04:04:57.991Z,99.99
2018-08-31T04:05:58.004Z,99.99
2018-08-31T04:06:58.023Z,99.99
2018-08-31T04:07:58.040Z,99.99
2018-08-31T04:08:58.059Z,99.99
2018-08-31T04:09:58.103Z,99.99
2018-08-31T04:10:58.094Z,99.99
2018-08-31T04:11:58.113Z,99.99
2018-08-31T04:12:58.132Z,99.99
2018-08-31T04:13:58.155Z,99.99
2018-08-31T04:14:58.220Z,99.99
2018-08-31T04:15:58.184Z,99.99
2018-08-31T04:16:58.201Z,99.99
2018-08-31T04:17:58.223Z,99.99
2018-08-31T04:18:58.242Z,99.99
2018-08-31T04:19:58.262Z,99.99
2018-08-31T04:20:58.280Z,99.99
2018-08-31T04:21:58.292Z,99.99
2018-08-31T04:22:58.312Z,99.99
2018-08-31T04:23:58.328Z,99.99
2018-08-31T04:24:58.345Z,99.99
2018-08-31T04:25:58.368Z,99.99
2018-08-31T04:26:58.383Z,99.99
2018-08-31T04:27:58.403Z,99.99
2018-08-31T04:28:58.418Z,99.99
2018-08-31T04:29:58.438Z,99.99
2018-08-31T04:30:58.454Z,99.99
2018-08-31T04:31:58.476Z,99.99
2018-08-31T04:32:58.492Z,99.99
2018-08-31T04:33:58.532Z,99.99
2018-08-31T04:34:58.532Z,99.99
2018-08-31T04:35:58.551Z,99.99
2018-08-31T04:36:58.568Z,99.99
2018-08-31T04:37:58.583Z,99.99
2018-08-31T04:38:58.602Z,99.99
2018-08-31T04:39:58.617Z,99.99
2018-08-31T04:40:58.638Z,99.99
2018-08-31T04:41:58.654Z,99.99
2018-08-31T04:42:58.719Z,99.99
2018-08-31T04:43:58.691Z,99.99
2018-08-31T04:44:58.708Z,99.99
2018-08-31T04:45:58.728Z,99.99
2018-08-31T04:46:58.742Z,99.99
2018-08-31T04:47:58.760Z,99.99
2018-08-31T04:48:58.778Z,99.99
2018-08-31T04:49:58.808Z,99.99
2018-08-31T04:50:58.819Z,99.99
2018-08-31T04:51:58.834Z,99.99
2018-08-31T04:52:58.856Z,99.99
2018-08-31T04:53:58.875Z,99.99
2018-08-31T04:54:58.885Z,99.99
2018-08-31T04:55:58.907Z,99.99
2018-08-31T04:56:58.922Z,99.99
2018-08-31T04:57:58.942Z,99.99
2018-08-31T04:58:58.974Z,99.99
2018-08-31T04:59:58.979Z,99.99
2018-08-31T05:00:58.997Z,99.99
2018-08-31T05:01:59.013Z,99.99
2018-08-31T05:02:59.033Z,99.99
2018-08-31T05:03:59.050Z,99.99
2018-08-31T05:04:59.068Z,99.99
2018-08-31T05:05:59.086Z,99.99
2018-08-31T05:06:59.105Z,99.99
2018-08-31T05:07:59.127Z,99.99
2018-08-31T05:08:59.138Z,99.99
2018-08-31T05:09:59.160Z,99.99
2018-08-31T05:10:59.175Z,99.99
2018-08-31T05:11:59.197Z,99.99
2018-08-31T05:12:59.213Z,99.99
2018-08-31T05:13:59.231Z,99.99
2018-08-31T05:14:59.249Z,99.99
2018-08-31T05:15:59.296Z,99.99
2018-08-31T05:16:59.285Z,99.99
2018-08-31T05:17:59.307Z,99.99
2018-08-31T05:18:59.325Z,99.99
2018-08-31T05:19:59.339Z,99.99
2018-08-31T05:20:59.357Z,99.99
2018-08-31T05:21:59.373Z,99.99
2018-08-31T05:22:59.455Z,99.99
2018-08-31T05:23:59.410Z,99.99
2018-08-31T05:24:59.427Z,99.99
2018-08-31T05:25:59.444Z,99.99
2018-08-31T05:26:59.472Z,99.99
2018-08-31T05:27:59.485Z,99.99
2018-08-31T05:28:59.499Z,99.99
2018-08-31T05:29:59.518Z,99.99
2018-08-31T05:30:59.536Z,99.99
2018-08-31T05:31:59.561Z,99.99
2018-08-31T05:32:59.572Z,99.99
2018-08-31T05:33:59.628Z,99.99
2018-08-31T05:34:59.607Z,99.99
2018-08-31T05:35:59.635Z,99.99
2018-08-31T05:36:59.651Z,99.99
2018-08-31T05:37:59.666Z,99.99
2018-08-31T05:38:59.680Z,99.99
2018-08-31T05:39:59.701Z,99.99
2018-08-31T05:40:59.737Z,99.99
2018-08-31T05:41:59.738Z,99.99
2018-08-31T05:42:59.753Z,99.99
2018-08-31T05:43:59.772Z,99.99
2018-08-31T05:44:59.791Z,99.99
2018-08-31T05:45:59.810Z,99.99
2018-08-31T05:46:59.879Z,99.99
2018-08-31T05:47:59.848Z,99.99
2018-08-31T05:48:59.865Z,99.99
2018-08-31T05:49:59.880Z,99.99
2018-08-31T05:50:59.900Z,99.99
2018-08-31T05:51:59.920Z,99.99
2018-08-31T05:52:59.936Z,99.99
2018-08-31T05:53:59.961Z,99.99
2018-08-31T05:54:59.975Z,99.99
2018-08-31T05:55:59.991Z,99.99
2018-08-31T05:57:00.009Z,99.99
2018-08-31T05:58:00.028Z,99.99
2018-08-31T05:59:00.044Z,99.99
2018-08-31T06:00:00.069Z,99.99
2018-08-31T06:01:00.081Z,99.99
2018-08-31T06:02:00.127Z,99.99
2018-08-31T06:03:00.117Z,99.99
2018-08-31T06:04:00.137Z,99.99
2018-08-31T06:05:00.153Z,99.99
2018-08-31T06:06:00.174Z,99.99
2018-08-31T06:07:00.240Z,99.99
2018-08-31T06:08:00.209Z,99.99
2018-08-31T06:09:00.228Z,99.99
2018-08-31T06:10:00.245Z,99.99
2018-08-31T06:11:00.266Z,99.99
2018-08-31T06:12:00.393Z,99.99
2018-08-31T06:13:00.303Z,99.99
2018-08-31T06:14:00.318Z,99.99
2018-08-31T06:15:00.340Z,99.99
2018-08-31T06:16:00.355Z,99.99
2018-08-31T06:17:00.377Z,99.99
2018-08-31T06:18:00.392Z,99.99
2018-08-31T06:19:00.414Z,99.99
2018-08-31T06:20:00.429Z,99.99
2018-08-31T06:21:00.508Z,99.99
2018-08-31T06:22:00.466Z,99.99
2018-08-31T06:23:00.484Z,99.99
2018-08-31T06:24:00.507Z,99.99
2018-08-31T06:25:00.528Z,99.99
2018-08-31T06:26:00.547Z,99.62
2018-08-31T06:27:00.594Z,98.75
2018-08-31T06:28:00.580Z,98.90
2018-08-31T06:29:00.597Z,97.99
2018-08-31T06:30:00.614Z,99.04
2018-08-31T06:31:00.635Z,99.52
2018-08-31T06:32:00.651Z,99.52
2018-08-31T06:33:00.671Z,99.81
2018-08-31T06:34:00.735Z,99.99
2018-08-31T06:35:00.713Z,99.99
2018-08-31T06:36:00.725Z,99.99
2018-08-31T06:37:00.744Z,99.99
2018-08-31T06:38:00.762Z,99.99
2018-08-31T06:39:00.780Z,99.99
2018-08-31T06:40:00.800Z,99.99
2018-08-31T06:41:00.826Z,99.99
2018-08-31T06:42:00.836Z,99.99
2018-08-31T06:43:00.857Z,99.99
2018-08-31T06:44:00.873Z,99.99
2018-08-31T06:45:00.891Z,99.99
2018-08-31T06:46:00.908Z,99.99
2018-08-31T06:47:00.927Z,99.99
2018-08-31T06:48:00.947Z,99.99
2018-08-31T06:49:00.964Z,99.99
2018-08-31T06:50:00.985Z,99.99
2018-08-31T06:51:01.011Z,99.99
2018-08-31T06:52:01.025Z,99.99
2018-08-31T06:53:01.039Z,99.99
2018-08-31T06:54:01.057Z,99.96
2018-08-31T06:55:01.076Z,99.99
2018-08-31T06:56:01.097Z,99.99
2018-08-31T06:57:01.115Z,99.99
2018-08-31T06:58:01.132Z,99.99
2018-08-31T06:59:01.152Z,99.99
2018-08-31T07:00:01.171Z,99.99
2018-08-31T07:01:01.191Z,99.99
2018-08-31T07:02:01.209Z,99.99
2018-08-31T07:03:01.228Z,99.99
2018-08-31T07:04:01.245Z,99.99
2018-08-31T07:05:01.262Z,99.99
2018-08-31T07:06:01.282Z,99.99
2018-08-31T07:07:01.301Z,99.99
2018-08-31T07:08:01.321Z,99.99
2018-08-31T07:09:01.337Z,99.99
2018-08-31T07:10:01.356Z,99.99
2018-08-31T07:11:01.371Z,99.99
2018-08-31T07:12:01.394Z,99.99
2018-08-31T07:13:01.412Z,99.99
2018-08-31T07:14:01.433Z,99.99
2018-08-31T07:15:01.450Z,99.99
2018-08-31T07:16:01.467Z,99.99
2018-08-31T07:17:01.487Z,99.99
2018-08-31T07:18:01.504Z,99.99
2018-08-31T07:19:01.523Z,99.99
2018-08-31T07:20:01.544Z,99.99
2018-08-31T07:21:01.559Z,99.99
2018-08-31T07:22:01.588Z,99.99
2018-08-31T07:23:01.600Z,99.99
2018-08-31T07:24:01.620Z,99.99
2018-08-31T07:25:01.637Z,99.99
2018-08-31T07:26:01.653Z,99.99
2018-08-31T07:27:01.677Z,99.72
2018-08-31T07:28:01.691Z,99.99
2018-08-31T07:29:01.709Z,99.99
2018-08-31T07:30:01.728Z,99.72
2018-08-31T07:31:01.751Z,99.99
2018-08-31T07:32:01.803Z,99.99
2018-08-31T07:33:01.785Z,99.99
2018-08-31T07:34:01.804Z,97.85
2018-08-31T07:35:01.832Z,95.36
2018-08-31T07:36:01.844Z,93.02
2018-08-31T07:37:01.861Z,91.86
2018-08-31T07:38:01.881Z,92.15
2018-08-31T07:39:01.902Z,94.50
2018-08-31T07:40:01.923Z,95.84
2018-08-31T07:41:01.936Z,96.32
2018-08-31T07:42:01.956Z,94.64
2018-08-31T07:43:01.987Z,92.30
2018-08-31T07:44:01.997Z,91.00
2018-08-31T07:45:02.012Z,93.40
2018-08-31T07:46:02.032Z,93.59
2018-08-31T07:47:02.054Z,92.68
2018-08-31T07:48:02.075Z,92.01
2018-08-31T07:49:02.092Z,93.78
2018-08-31T07:50:02.112Z,92.49
2018-08-31T07:51:02.130Z,92.10
2018-08-31T07:52:02.166Z,90.67
2018-08-31T07:53:02.168Z,89.37
2018-08-31T07:54:02.191Z,88.74
2018-08-31T07:55:02.212Z,90.00
2018-08-31T07:56:02.230Z,92.30
2018-08-31T07:57:02.248Z,90.47
2018-08-31T07:58:02.267Z,91.96
2018-08-31T07:59:02.291Z,90.52
2018-08-31T08:00:02.307Z,88.45
2018-08-31T08:01:02.330Z,88.41
2018-08-31T08:02:02.346Z,90.52
2018-08-31T08:03:02.365Z,89.47
2018-08-31T08:04:02.386Z,89.75
2018-08-31T08:05:02.412Z,89.65
2018-08-31T08:06:02.428Z,88.65
2018-08-31T08:07:02.447Z,87.77
2018-08-31T08:08:02.468Z,82.82
2018-08-31T08:09:02.491Z,80.17
2018-08-31T08:10:02.506Z,80.90
2018-08-31T08:11:02.530Z,83.74
2018-08-31T08:12:02.557Z,84.71
2018-08-31T08:13:02.569Z,85.81
2018-08-31T08:14:02.589Z,84.70
2018-08-31T08:15:02.616Z,83.97
2018-08-31T08:16:02.637Z,80.76
2018-08-31T08:17:02.657Z,81.72
2018-08-31T08:18:02.679Z,81.92
2018-08-31T08:19:02.697Z,83.54
2018-08-31T08:20:02.720Z,83.74
2018-08-31T08:21:02.740Z,83.36
2018-08-31T08:22:02.766Z,83.98
2018-08-31T08:23:02.784Z,85.42
2018-08-31T08:24:02.808Z,85.66
2018-08-31T08:25:02.828Z,83.48
2018-08-31T08:26:02.846Z,79.00
2018-08-31T08:27:02.877Z,78.36
2018-08-31T08:28:02.895Z,79.25
2018-08-31T08:29:02.918Z,80.84
2018-08-31T08:30:02.937Z,83.20
2018-08-31T08:31:02.962Z,83.01
2018-08-31T08:32:02.982Z,81.90
2018-08-31T08:33:03.003Z,80.48
2018-08-31T08:34:03.026Z,76.28
2018-08-31T08:35:03.045Z,77.75
2018-08-31T08:36:03.096Z,78.75
2018-08-31T08:37:03.090Z,77.88
2018-08-31T08:38:03.111Z,78.81
2018-08-31T08:39:03.132Z,77.92
2018-08-31T08:40:03.161Z,76.82
2018-08-31T08:41:03.186Z,78.88
2018-08-31T08:42:03.275Z,77.53
2018-08-31T08:43:03.221Z,78.08
2018-08-31T08:44:03.244Z,79.10
2018-08-31T08:45:03.266Z,80.25
2018-08-31T08:46:03.303Z,79.23
2018-08-31T08:47:03.309Z,78.11
2018-08-31T08:48:03.335Z,77.01
2018-08-31T08:49:03.358Z,76.86
2018-08-31T08:50:03.379Z,77.28
2018-08-31T08:51:03.400Z,77.53
2018-08-31T08:52:03.427Z,77.06
2018-08-31T08:53:03.444Z,77.78
2018-08-31T08:54:03.464Z,77.73
2018-08-31T08:55:03.488Z,76.51
2018-08-31T08:56:03.509Z,75.45
2018-08-31T08:57:03.532Z,75.45
2018-08-31T08:58:03.608Z,74.27
2018-08-31T08:59:03.576Z,73.11
2018-08-31T09:00:03.600Z,73.85
2018-08-31T09:01:03.620Z,75.23
2018-08-31T09:02:03.642Z,76.71
2018-08-31T09:03:03.669Z,75.72
2018-08-31T09:04:03.688Z,73.83
2018-08-31T09:05:03.707Z,73.28
2018-08-31T09:06:03.730Z,70.75
2018-08-31T09:07:03.757Z,68.01
2018-08-31T09:08:03.776Z,68.20
2018-08-31T09:09:03.799Z,70.81
2018-08-31T09:10:03.821Z,68.65
2018-08-31T09:11:03.843Z,69.26
2018-08-31T09:12:03.870Z,67.88
2018-08-31T09:13:03.891Z,68.23
2018-08-31T09:14:03.909Z,68.81
2018-08-31T09:15:03.936Z,68.46
2018-08-31T09:16:03.956Z,66.97
2018-08-31T09:17:03.980Z,66.97
2018-08-31T09:18:04.001Z,67.27
2018-08-31T09:19:04.023Z,66.01
2018-08-31T09:20:04.066Z,65.95
2018-08-31T09:21:04.070Z,66.40
2018-08-31T09:22:04.095Z,66.53
2018-08-31T09:23:04.112Z,64.79
2018-08-31T09:24:04.138Z,64.98
2018-08-31T09:25:04.154Z,63.76
2018-08-31T09:26:04.187Z,62.89
2018-08-31T09:27:04.205Z,62.50
2018-08-31T09:28:04.225Z,62.40
2018-08-31T09:29:04.248Z,61.83
2018-08-31T09:30:04.268Z,60.99
2018-08-31T09:31:04.294Z,59.89
2018-08-31T09:32:04.316Z,61.05
2018-08-31T09:33:04.335Z,61.70
2018-08-31T09:34:04.359Z,63.21
2018-08-31T09:35:04.389Z,62.48
2018-08-31T09:36:04.405Z,63.28
2018-08-31T09:37:04.425Z,62.18
2018-08-31T09:38:04.449Z,63.70
2018-08-31T09:39:04.472Z,64.86
2018-08-31T09:40:04.497Z,63.73
2018-08-31T09:41:04.515Z,63.44
2018-08-31T09:42:04.539Z,64.11
2018-08-31T09:43:04.564Z,61.16
2018-08-31T09:44:04.581Z,60.19
2018-08-31T09:45:04.607Z,59.61
2018-08-31T09:46:04.626Z,60.93
2018-08-31T09:47:04.648Z,59.80
2018-08-31T09:48:04.671Z,61.41
2018-08-31T09:49:04.689Z,61.99
2018-08-31T09:50:04.712Z,60.68
2018-08-31T09:51:04.784Z,61.03
2018-08-31T09:52:04.760Z,62.45
2018-08-31T09:53:04.784Z,63.12
2018-08-31T09:54:04.798Z,63.12
2018-08-31T09:55:04.821Z,63.41
2018-08-31T09:56:04.844Z,65.30
2018-08-31T09:57:04.864Z,65.05
2018-08-31T09:58:04.886Z,62.35
2018-08-31T09:59:04.907Z,63.41
2018-08-31T10:00:04.930Z,64.18
2018-08-31T10:01:04.951Z,64.76
2018-08-31T10:02:04.977Z,63.98
2018-08-31T10:03:04.998Z,60.49
2018-08-31T10:04:05.014Z,61.25
2018-08-31T10:05:05.035Z,61.68
2018-08-31T10:06:05.061Z,61.35
2018-08-31T10:07:05.083Z,62.12
2018-08-31T10:08:05.104Z,60.90
2018-08-31T10:09:05.122Z,60.90
2018-08-31T10:10:05.142Z,61.00
2018-08-31T10:11:05.164Z,60.90
2018-08-31T10:12:05.195Z,60.97
2018-08-31T10:13:05.207Z,59.84
2018-08-31T10:14:05.230Z,59.27
2018-08-31T10:15:05.251Z,60.13
2018-08-31T10:16:05.270Z,59.75
2018-08-31T10:17:05.293Z,59.75
2018-08-31T10:18:05.312Z,58.88
2018-08-31T10:19:05.340Z,58.49
2018-08-31T10:20:05.355Z,59.65
2018-08-31T10:21:05.379Z,58.97
2018-08-31T10:22:05.399Z,60.87
2018-08-31T10:23:05.417Z,60.13
2018-08-31T10:24:05.448Z,59.62
2018-08-31T10:25:05.460Z,61.52
2018-08-31T10:26:05.495Z,61.83
2018-08-31T10:27:05.502Z,62.03
2018-08-31T10:28:05.525Z,62.25
2018-08-31T10:29:05.544Z,61.55
2018-08-31T10:30:05.601Z,62.41
2018-08-31T10:31:05.587Z,61.16
2018-08-31T10:32:05.608Z,59.84
2018-08-31T10:33:05.629Z,59.07
2018-08-31T10:34:05.649Z,59.36
2018-08-31T10:35:05.670Z,59.65
2018-08-31T10:36:05.696Z,59.65
2018-08-31T10:37:05.713Z,60.13
2018-08-31T10:38:05.734Z,60.39
2018-08-31T10:39:05.758Z,60.77
2018-08-31T10:40:05.781Z,58.88
2018-08-31T10:41:05.885Z,56.69
2018-08-31T10:42:05.821Z,57.75
2018-08-31T10:43:05.845Z,57.39
2018-08-31T10:44:05.868Z,57.26
2018-08-31T10:45:05.886Z,56.58
2018-08-31T10:46:05.906Z,55.83
2018-08-31T10:47:05.930Z,54.41
2018-08-31T10:48:05.950Z,53.09
2018-08-31T10:49:05.974Z,53.64
2018-08-31T10:50:05.996Z,55.07
2018-08-31T10:51:06.017Z,54.75
2018-08-31T10:52:06.039Z,55.98
2018-08-31T10:53:06.062Z,54.91
2018-08-31T10:54:06.082Z,55.98
2018-08-31T10:55:06.106Z,55.13
2018-08-31T10:56:06.137Z,55.16
2018-08-31T10:57:06.147Z,55.27
2018-08-31T10:58:06.170Z,54.14
2018-08-31T10:59:06.194Z,53.88
2018-08-31T11:00:06.246Z,52.53
2018-08-31T11:01:06.238Z,52.91
2018-08-31T11:02:06.262Z,52.55
2018-08-31T11:03:06.282Z,52.65
2018-08-31T11:04:06.307Z,53.97
2018-08-31T11:05:06.327Z,52.75
2018-08-31T11:06:06.349Z,53.59
2018-08-31T11:07:06.372Z,54.33
2018-08-31T11:08:06.392Z,54.91
2018-08-31T11:09:06.413Z,55.13
2018-08-31T11:10:06.436Z,54.07
2018-08-31T11:11:06.464Z,54.05
2018-08-31T11:12:06.484Z,54.14
2018-08-31T11:13:06.583Z,55.20
2018-08-31T11:14:06.522Z,54.11
2018-08-31T11:15:06.592Z,54.79
2018-08-31T11:16:06.573Z,54.05
2018-08-31T11:17:06.588Z,54.02
2018-08-31T11:18:06.615Z,55.76
2018-08-31T11:19:06.636Z,55.36
2018-08-31T11:20:06.658Z,55.08
2018-08-31T11:21:06.678Z,55.56
2018-08-31T11:22:06.699Z,54.88
2018-08-31T11:23:06.721Z,55.94
2018-08-31T11:24:06.743Z,55.78
2018-08-31T11:25:06.765Z,55.85
2018-08-31T11:26:06.789Z,53.83
2018-08-31T11:27:06.809Z,54.24
2018-08-31T11:28:06.830Z,54.14
2018-08-31T11:29:06.854Z,54.14
2018-08-31T11:30:06.878Z,54.05
2018-08-31T11:31:06.900Z,53.66
2018-08-31T11:32:06.918Z,54.38
2018-08-31T11:33:06.942Z,55.15
2018-08-31T11:34:06.961Z,53.75
2018-08-31T11:35:06.987Z,52.47
2018-08-31T11:36:07.010Z,50.93
2018-08-31T11:37:07.026Z,49.96
2018-08-31T11:38:07.084Z,50.06
2018-08-31T11:39:07.069Z,49.77
2018-08-31T11:40:07.095Z,49.80
2018-08-31T11:41:07.117Z,49.58
2018-08-31T11:42:07.134Z,50.35
2018-08-31T11:43:07.158Z,50.38
2018-08-31T11:44:07.182Z,50.21
2018-08-31T11:45:07.199Z,50.47
2018-08-31T11:46:07.225Z,50.40
2018-08-31T11:47:07.244Z,50.33
2018-08-31T11:48:07.265Z,50.40
2018-08-31T11:49:07.283Z,50.59
2018-08-31T11:50:07.336Z,49.60
2018-08-31T11:51:07.343Z,50.18
2018-08-31T11:52:07.353Z,52.28
2018-08-31T11:53:07.371Z,52.11
2018-08-31T11:54:07.394Z,50.67
2018-08-31T11:55:07.435Z,50.86
2018-08-31T11:56:07.437Z,51.99
2018-08-31T11:57:07.460Z,52.47
2018-08-31T11:58:07.483Z,52.95
2018-08-31T11:59:07.539Z,51.92
2018-08-31T12:00:07.523Z,50.86
2018-08-31T12:01:07.613Z,50.86
2018-08-31T12:02:07.639Z,51.15
2018-08-31T12:03:07.590Z,52.09
2018-08-31T12:04:07.613Z,52.19
2018-08-31T12:05:07.630Z,51.44
2018-08-31T12:06:07.653Z,50.96
2018-08-31T12:07:07.673Z,50.38
2018-08-31T12:08:07.699Z,50.96
2018-08-31T12:09:07.718Z,49.99
2018-08-31T12:10:07.742Z,49.58
2018-08-31T12:11:07.760Z,49.68
2018-08-31T12:12:07.786Z,49.77
2018-08-31T12:13:07.802Z,49.41
2018-08-31T12:14:07.825Z,48.35
2018-08-31T12:15:07.851Z,49.29
2018-08-31T12:16:07.896Z,49.41
2018-08-31T12:17:07.893Z,48.28
2018-08-31T12:18:07.911Z,48.18
2018-08-31T12:19:07.934Z,47.58
2018-08-31T12:20:07.955Z,47.96
2018-08-31T12:21:08.014Z,48.83
2018-08-31T12:22:07.998Z,48.83
2018-08-31T12:23:08.020Z,49.29
2018-08-31T12:24:08.042Z,49.32
2018-08-31T12:25:08.064Z,49.24
2018-08-31T12:26:08.086Z,48.16
2018-08-31T12:27:08.107Z,49.41
2018-08-31T12:28:08.128Z,49.32
2018-08-31T12:29:08.148Z,49.80
2018-08-31T12:30:08.172Z,49.53
2018-08-31T12:31:08.194Z,49.44
2018-08-31T12:32:08.215Z,49.70
2018-08-31T12:33:08.237Z,49.15
2018-08-31T12:34:08.260Z,48.08
2018-08-31T12:35:08.284Z,47.48
2018-08-31T12:36:08.302Z,47.94
2018-08-31T12:37:08.320Z,47.85
2018-08-31T12:38:08.363Z,46.61
2018-08-31T12:39:08.369Z,45.55
2018-08-31T12:40:08.390Z,44.68
2018-08-31T12:41:08.413Z,44.51
2018-08-31T12:42:08.439Z,44.68
2018-08-31T12:43:08.457Z,44.03
2018-08-31T12:44:08.496Z,44.68
2018-08-31T12:45:08.499Z,44.59
2018-08-31T12:46:08.523Z,45.24
2018-08-31T12:47:08.543Z,46.08
2018-08-31T12:48:08.567Z,46.59
2018-08-31T12:49:08.600Z,46.59
2018-08-31T12:50:08.606Z,46.13
2018-08-31T12:51:08.635Z,44.68
2018-08-31T12:52:08.653Z,44.68
2018-08-31T12:53:08.671Z,44.29